Time;durP1;ratioP1;P1;durP2;ratioP2;P2;SDS_P1;SDS_P2;PMS_P1;PMS_P2;Temp;Humidity;BMP_temperature;BMP_pressure;BME280_temperature;BME280_humidity;BME280_pressure;Samples;Min_cycle;Max_cycle;Signal;HPM_P1;HPM_P2
2023/01/09 00:01:12;;;;;;;25.70;18.15;;;8.10;99.90;;;;;;5055146;28;20492;-49
2023/01/09 00:03:37;;;;;;;25.63;18.95;;;8.10;99.90;;;;;;5055403;28;20389;-48
2023/01/09 00:06:03;;;;;;;26.48;19.70;;;7.90;99.90;;;;;;5055557;28;20032;-48
2023/01/09 00:08:29;;;;;;;26.65;18.13;;;7.80;99.90;;;;;;5055792;28;20105;-48
2023/01/09 00:10:55;;;;;;;27.05;18.15;;;7.70;99.90;;;;;;5055432;28;20049;-49
2023/01/09 00:13:20;;;;;;;24.70;18.10;;;7.70;99.90;;;;;;5055642;28;20029;-48
2023/01/09 00:15:47;;;;;;;26.85;19.02;;;7.80;99.90;;;;;;5055246;28;20437;-49
2023/01/09 00:18:13;;;;;;;26.58;18.83;;;7.70;99.90;;;;;;5037192;28;20094;-48
2023/01/09 00:20:39;;;;;;;31.90;21.55;;;7.90;99.90;;;;;;5053629;28;20438;-48
2023/01/09 00:23:06;;;;;;;29.75;20.48;;;7.90;99.90;;;;;;5055086;28;20503;-48
2023/01/09 00:25:32;;;;;;;26.17;19.08;;;7.90;99.90;;;;;;5054821;28;20032;-48
2023/01/09 00:27:58;;;;;;;29.17;19.02;;;7.90;99.90;;;;;;5070453;28;20369;-48
2023/01/09 00:30:23;;;;;;;26.77;19.13;;;7.80;99.90;;;;;;5054404;28;20032;-48
2023/01/09 00:32:49;;;;;;;25.58;18.60;;;7.90;99.90;;;;;;5053150;28;20056;-49
2023/01/09 00:35:17;;;;;;;28.92;18.92;;;7.90;99.90;;;;;;5055137;28;20025;-48
2023/01/09 00:37:43;;;;;;;24.38;17.55;;;7.80;99.90;;;;;;5012819;28;20037;-49
2023/01/09 00:40:11;;;;;;;27.67;18.17;;;7.80;99.90;;;;;;4996424;28;20034;-48
2023/01/09 00:42:37;;;;;;;25.35;16.95;;;7.70;99.90;;;;;;5012438;28;20072;-48
2023/01/09 00:45:08;;;;;;;24.67;18.30;;;7.70;99.90;;;;;;5012809;28;20053;-49
2023/01/09 00:47:41;;;;;;;27.58;18.75;;;7.90;99.90;;;;;;4996373;28;20034;-48
2023/01/09 00:50:17;;;;;;;26.65;18.17;;;8.00;99.90;;;;;;5012770;28;20026;-48
2023/01/09 00:52:44;;;;;;;24.02;17.42;;;8.00;99.90;;;;;;5012040;28;20061;-48
2023/01/09 00:55:10;;;;;;;25.17;17.35;;;7.90;99.90;;;;;;5012534;28;20030;-48
2023/01/09 00:57:36;;;;;;;23.80;16.67;;;8.10;99.90;;;;;;5012634;28;20065;-48
2023/01/09 01:00:02;;;;;;;23.40;15.77;;;8.20;99.90;;;;;;5012577;28;20099;-47
2023/01/09 01:02:28;;;;;;;19.50;14.48;;;8.00;99.90;;;;;;4963600;28;20037;-48
2023/01/09 01:07:38;;;;;;;20.38;12.60;;;7.90;99.90;;;;;;4987661;28;20525;-48
2023/01/09 01:10:06;;;;;;;19.08;12.82;;;7.70;99.90;;;;;;5054031;28;20025;-48
2023/01/09 01:12:32;;;;;;;18.48;12.88;;;7.70;99.90;;;;;;5054149;28;20067;-48
2023/01/09 01:14:58;;;;;;;19.05;12.35;;;7.60;99.90;;;;;;5054271;28;20056;-48
2023/01/09 01:17:24;;;;;;;18.65;12.57;;;7.40;99.90;;;;;;5035747;28;20140;-48
2023/01/09 01:19:49;;;;;;;15.98;11.15;;;7.50;99.90;;;;;;5035453;28;20044;-48
2023/01/09 01:22:15;;;;;;;15.57;10.25;;;7.30;99.90;;;;;;5053933;28;20056;-48
2023/01/09 01:24:41;;;;;;;18.70;12.23;;;7.30;99.90;;;;;;5052153;28;20056;-48
2023/01/09 01:27:07;;;;;;;17.70;11.77;;;7.40;99.90;;;;;;5053888;28;20032;-49
2023/01/09 01:29:32;;;;;;;17.02;11.88;;;7.50;99.90;;;;;;5053899;28;20032;-48
2023/01/09 01:31:58;;;;;;;14.82;10.82;;;7.40;99.90;;;;;;5053842;28;20037;-48
2023/01/09 01:34:24;;;;;;;14.70;11.63;;;7.30;99.90;;;;;;5053980;28;20024;-48
2023/01/09 01:36:50;;;;;;;16.55;11.27;;;7.30;99.90;;;;;;5051876;28;20056;-48
2023/01/09 01:39:16;;;;;;;14.70;10.35;;;7.40;99.90;;;;;;5053724;28;20029;-48
2023/01/09 01:41:41;;;;;;;16.35;10.60;;;7.50;99.90;;;;;;5053770;28;20031;-48
2023/01/09 01:44:46;;;;;;;17.15;10.10;;;7.40;99.90;;;;;;5053607;28;20031;-48
2023/01/09 01:47:13;;;;;;;13.27;9.15;;;7.40;99.90;;;;;;5053485;28;20032;-48
2023/01/09 01:49:39;;;;;;;14.20;9.65;;;7.10;99.90;;;;;;5053394;28;20025;-48
2023/01/09 01:52:05;;;;;;;11.52;8.48;;;7.20;99.90;;;;;;5052936;28;20052;-48
2023/01/09 01:54:32;;;;;;;11.88;8.45;;;7.10;99.90;;;;;;5053350;28;20029;-47
2023/01/09 01:57:02;;;;;;;12.18;8.48;;;7.00;99.90;;;;;;5053509;28;20086;-48
2023/01/09 01:59:36;;;;;;;12.65;9.15;;;6.90;99.90;;;;;;5053187;28;20037;-48
2023/01/09 02:02:02;;;;;;;13.30;8.57;;;7.00;99.90;;;;;;5053469;28;20088;-48
2023/01/09 02:04:31;;;;;;;11.38;8.27;;;7.10;99.90;;;;;;5050971;28;20473;-48
2023/01/09 02:06:59;;;;;;;11.75;7.88;;;7.20;99.90;;;;;;5053069;28;20032;-48
2023/01/09 02:09:25;;;;;;;12.57;8.38;;;7.10;99.90;;;;;;5051382;28;20174;-48
2023/01/09 02:11:59;;;;;;;11.77;8.93;;;7.20;99.90;;;;;;5052795;28;20041;-48
2023/01/09 02:14:27;;;;;;;11.13;8.38;;;7.30;99.90;;;;;;5053192;28;20029;-48
2023/01/09 02:17:22;;;;;;;13.55;8.52;;;7.30;99.90;;;;;;5052711;28;20036;-48
2023/01/09 02:20:25;;;;;;;13.13;9.82;;;7.20;99.90;;;;;;5016611;28;20040;-48
2023/01/09 02:23:12;;;;;;;14.93;10.20;;;7.20;99.90;;;;;;5033339;28;20100;-47
2023/01/09 02:26:01;;;;;;;13.65;10.23;;;7.30;99.90;;;;;;5032942;28;20107;-48
2023/01/09 02:28:51;;;;;;;14.35;9.35;;;7.30;99.90;;;;;;5033057;28;20421;-47
2023/01/09 02:31:44;;;;;;;14.45;10.20;;;7.10;99.90;;;;;;5033224;28;20543;-48
2023/01/09 02:34:12;;;;;;;13.70;9.18;;;7.10;99.90;;;;;;5034305;28;20068;-48
2023/01/09 02:36:41;;;;;;;14.80;9.82;;;;;;;;;;5033894;28;20432;-48
2023/01/09 02:39:07;;;;;;;14.90;9.35;;;;;;;;;;5033147;28;20021;-48
2023/01/09 02:41:52;;;;;;;12.88;10.07;;;7.00;99.90;;;;;;5032970;28;20025;-48
2023/01/09 02:44:22;;;;;;;13.70;9.02;;;;;;;;;;5033219;28;20033;-49
2023/01/09 02:46:59;;;;;;;12.27;9.60;;;;;;;;;;5052856;28;20053;-48
2023/01/09 02:49:26;;;;;;;13.55;8.98;;;;;;;;;;5054871;28;20108;-48
2023/01/09 02:51:53;;;;;;;13.98;9.73;;;;;;;;;;5022376;28;20049;-48
2023/01/09 02:54:43;;;;;;;12.82;8.63;;;;;;;;;;5072321;28;20115;-48
2023/01/09 02:57:15;;;;;;;13.48;10.45;;;;;;;;;;4995146;28;20487;-48
2023/01/09 02:59:41;;;;;;;;;;;;;;;;;;4994441;28;20042;-48
2023/01/09 03:02:33;;;;;;;15.40;10.27;;;;;;;;;;4995079;28;19961;-48
2023/01/09 03:04:59;;;;;;;17.90;10.23;;;;;;;;;;4995153;28;20030;-48
2023/01/09 03:07:30;;;;;;;14.70;10.02;;;;;;;;;;4995021;28;20030;-48
2023/01/09 03:10:00;;;;;;;19.10;10.07;;;;;;;;;;4995034;28;20030;-48
2023/01/09 03:12:27;;;;;;;12.23;9.30;;;;;;;;;;4994826;28;20133;-48
2023/01/09 03:14:56;;;;;;;14.13;9.98;;;;;;;;;;4995004;28;20096;-48
2023/01/09 03:17:25;;;;;;;13.65;9.68;;;;;;;;;;4994843;28;20029;-48
2023/01/09 03:19:52;;;;;;;11.88;9.07;;;;;;;;;;4994924;28;20026;-48
2023/01/09 03:22:18;;;;;;;13.20;9.40;;;;;;;;;;4994719;28;20129;-48
2023/01/09 03:24:45;;;;;;;13.07;9.43;;;;;;;;;;4994548;28;20111;-48
2023/01/09 03:27:11;;;;;;;12.13;9.23;;;;;;;;;;4994716;28;20042;-49
2023/01/09 03:29:36;;;;;;;13.48;9.82;;;7.30;99.90;;;;;;4978279;28;20049;-48
2023/01/09 03:32:02;;;;;;;14.52;9.38;;;7.30;99.90;;;;;;4978306;28;20046;-48
2023/01/09 03:34:28;;;;;;;16.77;9.75;;;7.20;99.90;;;;;;5016805;28;20110;-48
2023/01/09 03:36:54;;;;;;;15.73;9.45;;;7.20;99.90;;;;;;5056106;28;20574;-48
2023/01/09 03:39:20;;;;;;;14.07;9.65;;;7.30;99.90;;;;;;5055906;28;20480;-48
2023/01/09 03:41:45;;;;;;;13.23;9.10;;;7.30;99.90;;;;;;5055799;28;20028;-48
2023/01/09 03:44:11;;;;;;;13.13;9.07;;;7.30;99.90;;;;;;5055821;28;20493;-48
2023/01/09 03:46:37;;;;;;;12.25;8.57;;;7.20;99.90;;;;;;5054786;28;20028;-48
2023/01/09 03:49:02;;;;;;;12.27;8.38;;;7.20;99.90;;;;;;5055811;28;20021;-48
2023/01/09 03:51:28;;;;;;;12.32;8.25;;;7.10;99.90;;;;;;5070162;28;20048;-48
2023/01/09 03:53:54;;;;;;;13.75;9.10;;;7.10;99.90;;;;;;5069296;28;20037;-48
2023/01/09 03:56:20;;;;;;;13.68;8.98;;;7.20;99.90;;;;;;5036021;28;20119;-48
2023/01/09 03:58:45;;;;;;;16.38;9.40;;;7.20;99.90;;;;;;5069360;28;20033;-48
2023/01/09 04:01:11;;;;;;;13.00;9.23;;;7.20;99.90;;;;;;5054304;28;20507;-48
2023/01/09 04:03:38;;;;;;;17.02;10.63;;;7.40;99.90;;;;;;5002830;28;20540;-48
2023/01/09 04:06:04;;;;;;;19.70;11.95;;;7.20;99.90;;;;;;5054306;28;20064;-48
2023/01/09 04:08:30;;;;;;;21.45;13.35;;;7.00;99.90;;;;;;5035234;28;20064;-48
2023/01/09 04:10:56;;;;;;;19.02;11.10;;;6.90;99.90;;;;;;5035603;28;20064;-48
2023/01/09 04:13:22;;;;;;;21.30;11.73;;;6.80;99.90;;;;;;5054564;28;20025;-48
2023/01/09 04:15:48;;;;;;;14.95;9.45;;;6.80;99.90;;;;;;5053567;28;20098;-49
2023/01/09 04:18:14;;;;;;;18.80;10.18;;;6.90;99.90;;;;;;5054071;28;20496;-48
2023/01/09 04:20:40;;;;;;;13.05;9.65;;;7.10;99.90;;;;;;5054236;28;20036;-48
2023/01/09 04:23:06;;;;;;;11.23;7.22;;;7.20;99.90;;;;;;5068889;28;20112;-49
2023/01/09 04:25:32;;;;;;;11.93;9.00;;;7.20;99.90;;;;;;5053985;28;20064;-48
2023/01/09 04:27:58;;;;;;;14.85;10.20;;;7.30;99.90;;;;;;5053855;28;20477;-49
2023/01/09 04:30:24;;;;;;;13.55;8.90;;;7.30;99.90;;;;;;5054053;28;20071;-48
2023/01/09 04:32:50;;;;;;;11.80;8.75;;;7.30;99.90;;;;;;5035336;28;20132;-48
2023/01/09 04:35:17;;;;;;;13.93;9.60;;;7.20;99.90;;;;;;5054015;28;20060;-48
2023/01/09 04:37:43;;;;;;;13.07;10.00;;;7.20;99.90;;;;;;5054002;28;20453;-48
2023/01/09 04:40:09;;;;;;;13.27;9.18;;;7.30;99.90;;;;;;5053770;28;20124;-48
2023/01/09 04:42:39;;;;;;;12.52;9.18;;;7.30;99.90;;;;;;4986280;28;20048;-48
2023/01/09 04:45:06;;;;;;;12.15;8.32;;;7.20;99.90;;;;;;5069499;28;20040;-48
2023/01/09 04:47:31;;;;;;;14.52;9.05;;;7.00;99.90;;;;;;5019168;28;20056;-48
2023/01/09 04:49:58;;;;;;;12.88;8.93;;;7.10;99.90;;;;;;5053813;28;20469;-48
2023/01/09 04:52:27;;;;;;;10.90;7.68;;;6.90;99.90;;;;;;4972594;28;1167186;-49
2023/01/09 04:54:53;;;;;;;13.95;8.45;;;6.90;99.90;;;;;;5054111;28;20036;-48
2023/01/09 04:57:19;;;;;;;11.75;8.35;;;7.00;99.90;;;;;;5052755;28;20041;-48
2023/01/09 04:59:45;;;;;;;12.95;8.57;;;6.80;99.90;;;;;;5069441;28;20119;-48
2023/01/09 05:02:11;;;;;;;14.15;7.82;;;6.80;99.90;;;;;;5035844;28;20075;-48
2023/01/09 05:04:36;;;;;;;7.03;5.18;;;6.70;99.90;;;;;;5035403;28;20044;-48
2023/01/09 05:07:02;;;;;;;13.43;9.70;;;6.70;99.90;;;;;;5052279;28;20051;-48
2023/01/09 05:09:28;;;;;;;10.38;6.82;;;6.80;99.90;;;;;;5035602;28;20075;-48
2023/01/09 05:11:54;;;;;;;12.93;7.88;;;6.70;99.90;;;;;;5034513;28;20056;-48
2023/01/09 05:14:20;;;;;;;15.60;9.65;;;6.60;99.90;;;;;;4986210;28;20048;-47
2023/01/09 05:16:45;;;;;;;12.00;9.27;;;6.80;99.90;;;;;;5051896;28;20492;-48
2023/01/09 05:19:12;;;;;;;14.10;9.23;;;6.90;99.90;;;;;;5051921;28;20036;-48
2023/01/09 05:21:38;;;;;;;12.48;8.07;;;7.00;99.90;;;;;;5052059;28;20033;-48
2023/01/09 05:24:04;;;;;;;12.35;7.88;;;7.10;99.90;;;;;;5051932;28;20091;-49
2023/01/09 05:26:30;;;;;;;13.60;7.78;;;7.10;99.90;;;;;;4985961;28;20048;-48
2023/01/09 05:28:56;;;;;;;10.82;7.32;;;7.10;99.90;;;;;;5051742;28;20049;-48
2023/01/09 05:31:24;;;;;;;13.45;9.48;;;7.30;99.90;;;;;;5034931;28;20499;-48
2023/01/09 05:33:50;;;;;;;13.80;8.98;;;7.30;99.90;;;;;;5051780;28;20492;-48
2023/01/09 05:36:16;;;;;;;14.10;10.50;;;7.30;99.90;;;;;;5034874;28;20481;-48
2023/01/09 05:38:42;;;;;;;17.00;10.90;;;7.30;99.90;;;;;;5051766;28;20033;-47
2023/01/09 05:41:08;;;;;;;12.15;9.65;;;7.40;99.90;;;;;;5051161;28;20079;-48
2023/01/09 05:43:34;;;;;;;10.18;7.45;;;7.50;99.90;;;;;;5053827;28;20037;-48
2023/01/09 05:45:59;;;;;;;11.73;7.53;;;7.50;99.90;;;;;;5053731;28;20029;-48
2023/01/09 05:48:25;;;;;;;10.60;7.13;;;7.60;99.90;;;;;;5035147;28;20045;-48
2023/01/09 05:50:51;;;;;;;12.38;7.90;;;7.60;99.90;;;;;;5053117;28;20036;-48
2023/01/09 05:53:17;;;;;;;11.05;7.45;;;7.70;99.90;;;;;;5052904;28;20045;-48
2023/01/09 05:55:42;;;;;;;9.15;6.85;;;7.80;99.90;;;;;;5034943;28;20052;-48
2023/01/09 05:58:08;;;;;;;9.15;6.35;;;7.80;99.90;;;;;;5053530;28;20083;-48
2023/01/09 06:00:35;;;;;;;10.48;6.90;;;7.70;99.90;;;;;;5052850;28;20437;-48
2023/01/09 06:03:00;;;;;;;9.63;6.75;;;7.70;99.90;;;;;;5053994;28;20443;-48
2023/01/09 06:05:26;;;;;;;10.60;7.88;;;7.80;99.90;;;;;;5054021;28;20029;-48
2023/01/09 06:07:52;;;;;;;13.52;7.32;;;7.80;99.90;;;;;;5054133;28;20033;-48
2023/01/09 06:10:17;;;;;;;15.52;11.38;;;7.90;99.90;;;;;;5052353;28;20572;-49
2023/01/09 06:12:48;;;;;;;19.35;13.13;;;8.00;99.90;;;;;;5051758;28;20408;-48
2023/01/09 06:15:14;;;;;;;14.70;9.07;;;8.10;99.90;;;;;;5053445;28;20025;-48
2023/01/09 06:17:41;;;;;;;14.48;12.45;;;7.90;99.90;;;;;;5053195;28;20037;-48
2023/01/09 06:20:07;;;;;;;17.20;12.80;;;8.00;99.90;;;;;;5049477;28;20127;-48
2023/01/09 06:22:33;;;;;;;11.88;8.10;;;8.10;99.90;;;;;;5016220;28;20116;-48
2023/01/09 06:24:59;;;;;;;14.65;9.07;;;8.10;99.90;;;;;;5053196;28;20064;-48
2023/01/09 06:27:24;;;;;;;12.95;8.68;;;8.10;99.90;;;;;;5052734;28;20495;-48
2023/01/09 06:29:50;;;;;;;10.85;7.60;;;8.10;99.90;;;;;;5053319;28;21116;-48
2023/01/09 06:32:16;;;;;;;9.60;7.40;;;8.10;99.90;;;;;;5052675;28;20485;-48
2023/01/09 06:34:42;;;;;;;9.60;8.02;;;8.20;99.90;;;;;;5034345;28;20045;-49
2023/01/09 06:37:08;;;;;;;11.95;8.48;;;8.30;99.90;;;;;;5052234;28;20036;-48
2023/01/09 06:39:33;;;;;;;9.40;7.38;;;8.30;99.90;;;;;;5067609;28;20049;-48
2023/01/09 06:41:59;;;;;;;10.73;7.95;;;8.30;99.90;;;;;;5051647;28;20036;-48
2023/01/09 06:44:25;;;;;;;11.05;7.70;;;8.20;99.90;;;;;;5067519;28;20123;-48
2023/01/09 06:46:51;;;;;;;10.38;7.65;;;8.20;99.90;;;;;;5052948;28;20364;-48
2023/01/09 06:49:22;;;;;;;8.77;6.40;;;8.30;99.90;;;;;;5052600;28;20442;-48
2023/01/09 06:51:48;;;;;;;9.85;6.53;;;8.30;99.90;;;;;;5034691;28;20045;-47
2023/01/09 06:54:14;;;;;;;10.35;7.25;;;8.20;99.90;;;;;;5052917;28;20029;-48
2023/01/09 06:56:40;;;;;;;10.10;6.72;;;8.40;99.90;;;;;;5034058;28;20037;-48
2023/01/09 06:59:06;;;;;;;11.48;8.55;;;8.40;99.90;;;;;;5052130;28;20028;-48
2023/01/09 07:01:31;;;;;;;14.25;7.95;;;8.50;99.90;;;;;;5084444;28;20029;-48
2023/01/09 07:03:57;;;;;;;12.27;8.27;;;8.50;99.90;;;;;;5034336;28;20033;-47
2023/01/09 07:06:23;;;;;;;13.32;8.68;;;8.60;99.90;;;;;;5052414;28;20087;-48
2023/01/09 07:08:49;;;;;;;8.05;5.53;;;8.80;99.90;;;;;;5084210;28;20094;-48
2023/01/09 07:11:14;;;;;;;13.75;9.23;;;8.70;99.90;;;;;;5052558;28;20025;-48
2023/01/09 07:13:40;;;;;;;10.75;7.88;;;8.80;99.90;;;;;;5052595;28;20026;-47
2023/01/09 07:16:06;;;;;;;11.32;8.13;;;8.90;99.90;;;;;;5052566;28;20029;-48
2023/01/09 07:18:32;;;;;;;12.70;9.10;;;8.90;99.90;;;;;;5052548;28;20108;-48
2023/01/09 07:20:57;;;;;;;12.77;9.02;;;9.00;99.90;;;;;;5067416;28;20111;-47
2023/01/09 07:23:23;;;;;;;14.45;8.18;;;9.00;99.90;;;;;;5065963;28;20484;-48
2023/01/09 07:25:51;;;;;;;13.93;9.57;;;9.00;99.90;;;;;;5050449;28;20029;-48
2023/01/09 07:28:17;;;;;;;13.35;8.18;;;9.00;99.90;;;;;;5051160;28;20024;-48
2023/01/09 07:30:42;;;;;;;13.00;9.15;;;9.00;99.90;;;;;;5051709;28;20377;-48
2023/01/09 07:33:08;;;;;;;13.02;7.88;;;9.10;99.90;;;;;;5049927;28;20369;-48
2023/01/09 07:35:34;;;;;;;14.88;9.90;;;9.10;99.90;;;;;;5053743;28;20020;-48
2023/01/09 07:38:00;;;;;;;12.63;8.77;;;9.10;99.90;;;;;;5055566;28;20033;-48
2023/01/09 07:40:26;;;;;;;11.38;8.48;;;9.20;99.90;;;;;;5054177;28;20031;-47
2023/01/09 07:42:52;;;;;;;13.65;9.15;;;9.20;99.90;;;;;;5055887;28;20037;-47
2023/01/09 07:45:18;;;;;;;12.73;9.40;;;9.30;99.90;;;;;;5055678;28;20485;-48
2023/01/09 07:47:44;;;;;;;11.43;8.55;;;9.40;99.90;;;;;;5037436;28;20068;-48
2023/01/09 07:50:10;;;;;;;11.35;8.45;;;9.30;99.90;;;;;;5054123;28;20493;-47
2023/01/09 07:52:36;;;;;;;12.50;9.25;;;9.40;99.90;;;;;;5055456;28;20053;-48
2023/01/09 07:55:02;;;;;;;15.27;9.70;;;9.30;99.90;;;;;;5053855;28;20086;-47
2023/01/09 07:57:29;;;;;;;10.65;7.00;;;9.20;99.90;;;;;;5053898;28;20041;-47
2023/01/09 07:59:55;;;;;;;13.80;8.93;;;9.10;99.90;;;;;;5055595;28;20029;-48
2023/01/09 08:02:21;;;;;;;17.02;11.05;;;9.10;99.90;;;;;;5056058;28;20025;-48
2023/01/09 08:04:47;;;;;;;14.88;10.43;;;9.20;99.90;;;;;;5053126;28;20393;-48
2023/01/09 08:07:13;;;;;;;13.75;10.00;;;9.20;99.90;;;;;;5018823;28;20043;-45
2023/01/09 08:09:38;;;;;;;14.77;9.95;;;9.40;99.90;;;;;;5057857;28;20400;-44
2023/01/09 08:12:04;;;;;;;13.95;9.65;;;9.40;99.90;;;;;;5053028;28;20051;-52
2023/01/09 08:14:30;;;;;;;12.20;7.10;;;9.30;99.90;;;;;;5054671;28;20134;-42
2023/01/09 08:16:56;;;;;;;11.55;7.38;;;9.40;99.90;;;;;;5055314;28;20448;-43
2023/01/09 08:19:22;;;;;;;10.32;7.25;;;9.50;99.90;;;;;;5053821;28;20029;-44
2023/01/09 08:21:48;;;;;;;13.25;8.55;;;9.50;99.90;;;;;;5054258;28;20025;-45
2023/01/09 08:24:14;;;;;;;13.45;8.35;;;9.50;99.90;;;;;;5054432;28;20108;-45
2023/01/09 08:26:40;;;;;;;12.50;8.75;;;9.60;99.90;;;;;;5052605;28;20115;-46
2023/01/09 08:29:06;;;;;;;11.25;8.10;;;9.60;99.90;;;;;;5054267;28;20024;-45
2023/01/09 08:31:31;;;;;;;10.48;5.97;;;9.60;99.90;;;;;;5033995;28;20048;-46
2023/01/09 08:33:57;;;;;;;11.05;8.07;;;9.60;99.90;;;;;;5053720;28;20028;-48
2023/01/09 08:36:23;;;;;;;9.73;7.28;;;9.60;99.90;;;;;;5054178;28;20535;-47
2023/01/09 08:38:48;;;;;;;10.02;7.63;;;9.60;99.90;;;;;;5054290;28;20024;-48
2023/01/09 08:49:27;;;;;;;12.88;8.30;;;9.70;99.90;;;;;;5052027;28;20207;-45
2023/01/09 08:51:53;;;;;;;9.45;5.97;;;9.80;99.90;;;;;;5051189;28;20560;-45
2023/01/09 08:54:19;;;;;;;10.45;7.40;;;9.70;99.90;;;;;;5050410;28;20037;-48
2023/01/09 08:56:44;;;;;;;11.35;8.00;;;9.80;99.90;;;;;;5053360;28;20021;-46
2023/01/09 08:59:10;;;;;;;11.75;8.13;;;;;;;;;;5050599;28;20081;-47
2023/01/09 09:01:36;;;;;;;12.30;9.00;;;10.10;99.90;;;;;;5053767;28;20032;-47
2023/01/09 09:04:04;;;;;;;14.07;8.52;;;10.10;99.90;;;;;;5034365;28;20045;-46
2023/01/09 09:06:31;;;;;;;11.88;7.70;;;10.10;99.90;;;;;;5053284;28;20037;-47
2023/01/09 09:09:01;;;;;;;14.63;8.63;;;10.10;99.90;;;;;;5053384;28;20021;-49
2023/01/09 09:11:29;;;;;;;12.32;8.63;;;10.10;99.90;;;;;;5053862;28;20037;-44
2023/01/09 09:13:55;;;;;;;9.40;7.68;;;10.20;99.90;;;;;;5050522;28;20039;-48
2023/01/09 09:16:21;;;;;;;11.30;8.27;;;10.20;99.90;;;;;;5053610;28;20032;-45
2023/01/09 09:18:46;;;;;;;11.82;7.82;;;10.40;99.90;;;;;;5051029;28;20358;-45
2023/01/09 09:21:12;;;;;;;10.82;8.07;;;10.40;99.90;;;;;;5053491;28;20021;-49
2023/01/09 09:23:38;;;;;;;10.85;7.10;;;10.40;99.90;;;;;;5053418;28;20032;-45
2023/01/09 09:26:04;;;;;;;12.35;8.02;;;10.40;99.90;;;;;;5050479;28;20051;-46
2023/01/09 09:28:30;;;;;;;11.20;8.18;;;10.40;99.90;;;;;;5034679;28;20388;-48
2023/01/09 09:30:55;;;;;;;11.32;8.20;;;10.40;99.90;;;;;;5052109;28;20033;-52
2023/01/09 09:33:22;;;;;;;10.43;8.23;;;10.40;99.90;;;;;;5051189;28;20032;-47
2023/01/09 09:35:47;;;;;;;12.38;8.15;;;10.40;99.90;;;;;;5050531;28;20036;-50
2023/01/09 09:38:13;;;;;;;12.20;7.22;;;10.40;99.90;;;;;;5064190;28;20028;-50
2023/01/09 09:40:58;;;;;;;13.20;8.55;;;10.40;99.90;;;;;;5058493;28;20547;-51
2023/01/09 09:47:31;;;;;;;9.75;5.90;;;10.40;99.90;;;;;;4970185;28;20418;-50
2023/01/09 09:50:21;;;;;;;11.85;8.65;;;10.30;99.90;;;;;;4973257;28;20038;-48
2023/01/09 09:52:52;;;;;;;11.38;7.47;;;10.50;99.90;;;;;;4989810;28;20058;-48
2023/01/09 09:55:28;;;;;;;10.98;8.07;;;10.50;99.90;;;;;;4989753;28;20030;-47
2023/01/09 09:57:55;;;;;;;15.32;9.18;;;10.50;99.90;;;;;;4987700;28;20042;-47
2023/01/09 10:00:22;;;;;;;10.45;7.68;;;10.40;99.90;;;;;;4989874;28;20042;-47
2023/01/09 10:03:00;;;;;;;12.40;7.97;;;10.50;99.90;;;;;;4974303;28;20034;-46
2023/01/09 10:05:40;;;;;;;11.60;7.70;;;10.60;99.90;;;;;;4987754;28;20077;-46
2023/01/09 10:08:27;;;;;;;12.32;8.98;;;10.70;99.90;;;;;;4988017;28;20466;-46
2023/01/09 10:10:55;;;;;;;9.20;7.70;;;10.90;99.90;;;;;;4990234;28;20100;-45
2023/01/09 10:16:27;;;;;;;13.10;9.50;;;10.90;99.90;;;;;;4990558;28;20064;-48
2023/01/09 10:19:15;;;;;;;13.88;8.85;;;11.00;99.90;;;;;;5033440;28;20037;-46
2023/01/09 10:21:59;;;;;;;12.75;6.15;;;10.90;99.90;;;;;;5010823;28;20038;-48
2023/01/09 10:24:49;;;;;;;9.93;6.88;;;10.80;99.90;;;;;;5028105;28;20056;-48
2023/01/09 10:27:52;;;;;;;8.38;6.32;;;10.70;99.90;;;;;;5036092;28;20504;-47
2023/01/09 10:30:24;;;;;;;11.88;8.55;;;10.70;99.90;;;;;;5047159;28;20028;-47
2023/01/09 10:33:09;;;;;;;13.10;8.00;;;10.60;99.90;;;;;;5043344;28;20041;-48
2023/01/09 10:36:12;;;;;;;16.42;10.60;;;10.60;99.90;;;;;;5034063;28;20021;-48
2023/01/09 10:38:45;;;;;;;14.10;9.25;;;10.70;99.90;;;;;;5037818;28;20025;-47
2023/01/09 10:41:49;;;;;;;17.92;11.32;;;10.60;99.90;;;;;;5036602;28;20068;-46
2023/01/09 10:44:20;;;;;;;13.93;8.45;;;10.80;99.90;;;;;;5038095;28;20088;-47
2023/01/09 10:46:56;;;;;;;8.38;5.43;;;10.70;99.90;;;;;;5050276;28;20044;-45
2023/01/09 10:49:23;;;;;;;10.68;7.30;;;10.60;99.90;;;;;;5046163;28;20029;-48
2023/01/09 10:51:59;;;;;;;9.65;6.05;;;10.80;99.90;;;;;;5046916;28;20049;-47
2023/01/09 10:54:24;;;;;;;11.15;7.63;;;10.70;99.90;;;;;;5048826;28;20116;-48
2023/01/09 10:57:03;;;;;;;12.30;8.02;;;10.70;99.90;;;;;;5050103;28;20124;-46
2023/01/09 10:59:29;;;;;;;12.70;8.00;;;10.60;99.90;;;;;;5048009;28;20091;-47
2023/01/09 11:01:55;;;;;;;13.18;8.95;;;10.70;99.90;;;;;;5041453;28;20034;-47
2023/01/09 11:04:33;;;;;;;16.45;9.55;;;10.80;99.90;;;;;;5030184;28;20044;-53
2023/01/09 11:07:20;;;;;;;13.30;8.48;;;11.00;99.90;;;;;;5039828;28;20054;-51
2023/01/09 11:10:06;;;;;;;12.25;8.70;;;11.00;99.90;;;;;;5049027;28;20025;-50
2023/01/09 11:12:34;;;;;;;10.48;7.35;;;10.90;99.90;;;;;;5053101;28;20045;-52
2023/01/09 11:15:14;;;;;;;17.05;11.20;;;10.90;99.90;;;;;;5052697;28;20033;-52
2023/01/09 11:17:45;;;;;;;12.60;8.50;;;10.90;99.90;;;;;;5053170;28;20025;-51
2023/01/09 11:20:28;;;;;;;15.27;10.43;;;10.90;99.90;;;;;;5051449;28;20031;-53
2023/01/09 11:22:56;;;;;;;17.13;11.77;;;11.00;99.90;;;;;;5051030;28;20105;-49
2023/01/09 11:25:28;;;;;;;14.70;10.00;;;11.10;99.90;;;;;;5033504;28;20036;-49
2023/01/09 11:28:08;;;;;;;33.55;23.20;;;11.10;99.90;;;;;;5045107;28;20037;-48
2023/01/09 11:30:36;;;;;;;13.52;9.20;;;11.10;99.90;;;;;;5052467;28;20028;-49
2023/01/09 11:33:23;;;;;;;14.45;10.57;;;11.00;99.90;;;;;;5052645;28;20521;-49
2023/01/09 11:36:06;;;;;;;10.65;6.75;;;11.20;99.90;;;;;;5036081;28;20095;-51
2023/01/09 11:38:55;;;;;;;11.50;6.05;;;11.20;99.90;;;;;;5054994;28;20024;-50
2023/01/09 11:41:26;;;;;;;13.27;8.45;;;11.30;99.90;;;;;;5050679;28;20025;-49
2023/01/09 11:43:55;;;;;;;12.70;7.93;;;11.30;99.90;;;;;;5050564;28;20033;-50
2023/01/09 11:46:33;;;;;;;17.52;12.20;;;11.50;99.90;;;;;;5049238;28;20051;-51
2023/01/09 11:49:01;;;;;;;15.13;9.35;;;11.60;99.90;;;;;;5050395;28;20481;-50
2023/01/09 11:51:32;;;;;;;11.38;7.32;;;11.60;99.90;;;;;;5054525;28;20067;-49
2023/01/09 11:54:31;;;;;;;10.63;8.00;;;11.70;99.90;;;;;;5051721;28;20095;-49
2023/01/09 11:56:57;;;;;;;8.80;4.90;;;11.80;99.90;;;;;;5051597;28;20040;-49
2023/01/09 11:59:28;;;;;;;12.63;8.68;;;11.80;99.90;;;;;;5049036;28;20041;-49
2023/01/09 12:02:18;;;;;;;7.10;5.32;;;11.80;99.90;;;;;;5048716;28;20029;-51
2023/01/09 12:05:00;;;;;;;10.45;6.22;;;11.90;99.90;;;;;;5049067;28;20033;-49
2023/01/09 12:07:53;;;;;;;10.40;7.13;;;11.90;99.90;;;;;;5043468;28;20111;-49
2023/01/09 12:10:29;;;;;;;10.73;7.57;;;12.00;99.90;;;;;;5048778;28;20037;-50
2023/01/09 12:13:21;;;;;;;8.98;5.68;;;12.00;99.90;;;;;;5047466;28;20093;-49
2023/01/09 12:16:07;;;;;;;10.60;5.73;;;11.90;99.90;;;;;;4992916;28;20542;-51
2023/01/09 12:18:44;;;;;;;11.60;7.95;;;12.00;99.90;;;;;;4992624;28;20038;-49
2023/01/09 12:21:15;;;;;;;10.82;7.53;;;12.00;99.90;;;;;;4992870;28;20035;-51
2023/01/09 12:23:41;;;;;;;10.23;7.65;;;;;;;;;;4976306;28;20433;-48
2023/01/09 12:26:19;;;;;;;15.40;10.88;;;;;;;;;;4992583;28;20395;-50
2023/01/09 12:28:45;;;;;;;21.17;10.48;;;;;;;;;;4992496;28;20038;-49
2023/01/09 12:31:29;;;;;;;15.77;10.27;;;12.30;99.90;;;;;;4992913;28;20025;-49
2023/01/09 12:34:25;;;;;;;15.00;8.15;;;12.30;99.90;;;;;;4975834;28;20034;-50
2023/01/09 12:37:00;;;;;;;16.65;11.48;;;;;;;;;;4992654;28;20114;-50
2023/01/09 12:39:29;;;;;;;19.15;13.32;;;;;;;;;;4992714;28;20537;-49
2023/01/09 12:42:18;;;;;;;19.40;12.38;;;;;;;;;;4992072;28;20502;-51
2023/01/09 12:45:14;;;;;;;17.50;11.02;;;12.70;99.90;;;;;;4992079;28;20057;-50
2023/01/09 12:47:48;;;;;;;14.95;9.60;;;12.60;99.90;;;;;;4992120;28;20093;-50
2023/01/09 12:50:39;;;;;;;12.80;8.30;;;12.60;99.90;;;;;;4991673;28;20394;-51
2023/01/09 12:53:23;;;;;;;14.45;7.80;;;12.50;99.90;;;;;;5024792;28;20106;-51
2023/01/09 12:55:58;;;;;;;13.15;9.52;;;12.60;99.90;;;;;;5052738;28;20075;-50
2023/01/09 12:58:38;;;;;;;12.30;8.38;;;12.60;99.90;;;;;;5048313;28;20029;-49
2023/01/09 13:01:07;;;;;;;8.55;6.20;;;12.50;99.90;;;;;;5047446;28;20386;-49
2023/01/09 13:04:08;;;;;;;10.23;7.40;;;12.50;99.90;;;;;;5047427;28;20101;-49
2023/01/09 13:06:35;;;;;;;14.43;8.80;;;;;;;;;;5047138;28;20021;-49
2023/01/09 13:09:10;;;;;;;13.35;8.65;;;;;;;;;;5049198;28;20452;-50
2023/01/09 13:11:59;;;;;;;9.23;6.70;;;;;;;;;;5050207;28;20037;-49
2023/01/09 13:14:31;;;;;;;12.55;7.90;;;;;;;;;;5008981;28;20473;-49
2023/01/09 13:16:57;;;;;;;8.95;6.53;;;;;;;;;;5012371;28;20140;-48
2023/01/09 13:19:26;;;;;;;9.52;6.78;;;;;;;;;;5011692;28;20037;-48
2023/01/09 13:21:54;;;;;;;10.52;7.45;;;;;;;;;;5012287;28;20034;-49
2023/01/09 13:24:26;;;;;;;13.27;8.45;;;;;;;;;;5011140;28;20025;-49
2023/01/09 13:26:55;;;;;;;12.50;8.10;;;;;;;;;;5011506;28;20037;-50